Clearfield, PA

6:15 AM EDT on August 26, 2016 (GMT -0400)
Clearfield | | Change Station

Elev 1127 ft 41.02 °N, 78.46 °W | Updated 13 seconds ago

Mostly Cloudy
Mostly Cloudy
69.9 °F
Feels Like 69.9 °F
N
0.0
Wind Variable Wind from WNW
Gusts 9.0 mph

Today
High -- | Low -- °F
--% Chance of Precip.
Yesterday
High -- | Low -- °F
Precip. -- in
Pressure 30.06 in
Visibility 6.0 miles
Clouds Few 1900 ft
Mostly Cloudy 2700 ft
Mostly Cloudy 3400 ft
Dew Point 69 °F
Humidity 97%
Rainfall 0.00 in
Snow Depth Not available.
6:34 AM 7:55 PM
Waning Crescent, 36% visible
METAR KFIG 260954Z AUTO 00000KT 6SM BR FEW019 BKN027 BKN034 22/22 A3010 RMK AO2 SLP180 T02170217
Pressure 30.06 in
Visibility 6.0 miles
Clouds Few 1900 ft
Mostly Cloudy 2700 ft
Mostly Cloudy 3400 ft
Dew Point 69 °F
Humidity 97%
Rainfall 0.00 in
Snow Depth Not available.
6:34 AM 7:55 PM
Waning Crescent, 36% visible
METAR KFIG 260954Z AUTO 00000KT 6SM BR FEW019 BKN027 BKN034 22/22 A3010 RMK AO2 SLP180 T02170217

10-Day Weather Forecast

Almanac

Astronomy

Aug. 26, 2016 Rise Set
Actual Time
Civil Twilight
Nautical Twilight
Astronomical Twilight
Moon
Length of Visible Light
Length of Day
Tomorrow will be .
, % of the Moon is Illuminated

Today's Extremes

State Highs State Lows

Community

WunderPhotos

Upload Photos

1,935,069 photos uploaded!

WunderBlog® & News

Nearby

Air Quality

  Air Quality AQ Index Pollutant
Not available.

Snow Depth

Station Depth Elevation

Earthquake Activity

City Distance Mag. Time & Date
Minimum magnitude displayed is 2.5.

Coastal Water Temperatures

Place Temperature

Stations

Nearby Weather Stations

Station Location Temp. Windchill Dew Point Humidity Wind Precip. Elev Updated Type
                   

Watches & Warnings

There are currently no watches in effect.